Time;durP1;ratioP1;P1;durP2;ratioP2;P2;SDS_P1;SDS_P2;PMS_P1;PMS_P2;Temp;Humidity;BMP_temperature;BMP_pressure;BME280_temperature;BME280_humidity;BME280_pressure;Samples;Min_cycle;Max_cycle;Signal;HPM_P1;HPM_P2
2023/03/25 00:00:57;;;;;;;15.90;12.98;;;15.40;80.40;;;;;;5054066;28;20037;-81
2023/03/25 00:03:32;;;;;;;18.65;13.48;;;15.40;80.70;;;;;;5054402;28;20052;-82
2023/03/25 00:05:58;;;;;;;17.02;13.43;;;15.40;80.70;;;;;;5053308;28;20493;-84
2023/03/25 00:08:24;;;;;;;17.55;14.02;;;15.40;80.60;;;;;;5056508;28;20167;-82
2023/03/25 00:10:58;;;;;;;16.48;13.95;;;15.30;80.60;;;;;;5057441;28;20029;-82
2023/03/25 00:13:25;;;;;;;19.35;14.68;;;15.30;80.70;;;;;;5053654;28;20106;-82
2023/03/25 00:15:52;;;;;;;17.30;14.88;;;15.20;80.90;;;;;;5053465;28;20029;-84
2023/03/25 00:18:20;;;;;;;18.95;14.13;;;15.20;81.10;;;;;;5053376;28;20117;-82
2023/03/25 00:20:49;;;;;;;19.23;14.68;;;15.20;81.20;;;;;;5044533;28;20593;-83
2023/03/25 00:23:16;;;;;;;18.48;14.10;;;15.20;81.50;;;;;;5015930;28;20052;-84
2023/03/25 00:25:43;;;;;;;18.20;14.68;;;15.20;81.30;;;;;;5015874;28;20044;-82
2023/03/25 00:28:10;;;;;;;21.15;15.57;;;15.20;81.30;;;;;;5038350;28;20528;-84
2023/03/25 00:30:37;;;;;;;19.25;14.30;;;15.20;81.10;;;;;;5034122;28;20033;-81
2023/03/25 00:33:03;;;;;;;21.33;15.35;;;15.20;80.90;;;;;;5032744;28;20029;-83
2023/03/25 00:35:29;;;;;;;18.33;15.07;;;15.20;80.90;;;;;;5033323;28;20028;-81
2023/03/25 00:38:01;;;;;;;16.52;13.23;;;15.20;80.80;;;;;;5033425;28;20038;-83
2023/03/25 00:40:33;;;;;;;15.80;12.90;;;15.10;80.70;;;;;;5032730;28;20190;-83
2023/03/25 00:43:00;;;;;;;16.48;12.90;;;15.10;80.30;;;;;;5052109;28;20068;-82
2023/03/25 00:45:26;;;;;;;18.10;11.98;;;15.10;80.10;;;;;;5054641;28;20021;-82
2023/03/25 00:47:52;;;;;;;14.70;10.75;;;15.10;79.70;;;;;;5055669;28;20051;-81
2023/03/25 00:50:18;;;;;;;15.70;10.63;;;15.10;79.10;;;;;;5053767;28;20100;-84
2023/03/25 00:52:44;;;;;;;13.73;10.90;;;15.10;78.70;;;;;;5052991;28;20386;-80
2023/03/25 00:55:10;;;;;;;14.40;10.43;;;15.00;78.20;;;;;;5056001;28;20036;-82
2023/03/25 00:57:36;;;;;;;15.65;10.38;;;15.00;78.10;;;;;;5057519;28;20029;-83
2023/03/25 01:00:06;;;;;;;13.48;11.40;;;15.00;77.30;;;;;;5053909;28;20044;-82
2023/03/25 01:02:32;;;;;;;14.57;10.35;;;15.00;77.00;;;;;;5053365;28;20022;-81
2023/03/25 01:04:59;;;;;;;14.80;10.98;;;15.00;76.70;;;;;;5053006;28;20489;-83
2023/03/25 01:07:25;;;;;;;16.02;11.32;;;14.90;76.50;;;;;;5053012;28;20461;-82
2023/03/25 01:09:50;;;;;;;16.02;11.60;;;14.90;76.40;;;;;;5052720;28;20559;-83
2023/03/25 01:12:17;;;;;;;16.35;12.30;;;14.90;75.80;;;;;;5052986;28;20033;-81
2023/03/25 01:14:43;;;;;;;18.48;12.02;;;14.90;75.90;;;;;;5053589;28;20086;-81
2023/03/25 01:17:10;;;;;;;15.27;12.43;;;14.90;75.90;;;;;;5052755;28;20404;-82
2023/03/25 01:19:35;;;;;;;15.60;11.88;;;14.90;75.90;;;;;;5052663;28;20035;-82
2023/03/25 01:22:01;;;;;;;15.50;12.07;;;14.90;75.90;;;;;;5052406;28;20045;-82
2023/03/25 01:24:27;;;;;;;14.23;12.05;;;14.90;75.90;;;;;;5052461;28;20041;-82
2023/03/25 01:26:53;;;;;;;16.55;12.82;;;14.80;75.70;;;;;;5052743;28;20041;-82
2023/03/25 01:29:20;;;;;;;20.15;13.23;;;14.80;76.00;;;;;;5052731;28;20037;-82
2023/03/25 01:31:46;;;;;;;16.80;13.30;;;14.80;76.00;;;;;;5052750;28;20044;-82
2023/03/25 01:34:13;;;;;;;17.63;13.77;;;14.80;76.20;;;;;;5052502;28;20029;-82
2023/03/25 01:36:40;;;;;;;18.23;13.98;;;14.80;76.20;;;;;;5072199;22;20056;-83
2023/03/25 01:39:07;;;;;;;18.05;13.57;;;14.80;76.30;;;;;;5072927;28;20032;-81
2023/03/25 01:41:35;;;;;;;17.73;14.90;;;14.70;76.20;;;;;;5073127;28;20431;-82
2023/03/25 01:44:01;;;;;;;15.20;13.07;;;14.70;76.10;;;;;;5073150;28;20086;-81
2023/03/25 01:46:26;;;;;;;17.75;13.15;;;14.70;76.20;;;;;;5075836;28;20037;-82
2023/03/25 01:48:52;;;;;;;17.17;12.45;;;14.70;76.30;;;;;;5075393;28;20068;-81
2023/03/25 01:51:25;;;;;;;19.30;12.57;;;14.60;76.10;;;;;;5074398;28;20036;-81
2023/03/25 01:53:53;;;;;;;16.27;11.73;;;14.60;76.30;;;;;;5075873;28;20036;-81
2023/03/25 01:56:35;;;;;;;16.27;12.27;;;14.60;76.20;;;;;;5080635;28;20028;-80
2023/03/25 01:59:05;;;;;;;16.02;11.52;;;14.60;76.30;;;;;;5059884;28;20115;-81
2023/03/25 02:01:31;;;;;;;13.73;10.65;;;14.60;76.90;;;;;;5076130;28;20083;-81
2023/03/25 02:04:01;;;;;;;13.77;10.35;;;14.60;77.00;;;;;;5058080;28;20075;-81
2023/03/25 02:06:43;;;;;;;16.65;9.82;;;14.60;77.10;;;;;;5075958;28;20036;-81
2023/03/25 02:09:10;;;;;;;12.52;9.75;;;14.60;77.30;;;;;;5075873;28;20401;-82
2023/03/25 02:11:37;;;;;;;11.68;9.60;;;14.50;77.40;;;;;;5076497;28;20027;-83
2023/03/25 02:14:07;;;;;;;14.05;10.15;;;14.50;77.50;;;;;;5075895;28;20035;-80
2023/03/25 02:17:08;;;;;;;17.23;10.13;;;14.50;77.80;;;;;;5076005;28;20029;-80
2023/03/25 02:19:50;;;;;;;12.48;9.75;;;14.50;78.20;;;;;;5063322;28;20033;-82
2023/03/25 02:22:48;;;;;;;13.40;9.73;;;14.40;78.60;;;;;;5088783;28;20035;-82
2023/03/25 02:25:38;;;;;;;12.35;9.55;;;14.40;79.30;;;;;;5061146;28;20373;-81
2023/03/25 02:28:24;;;;;;;11.48;9.35;;;14.40;79.40;;;;;;5076057;28;20086;-81
2023/03/25 02:30:59;;;;;;;10.82;9.57;;;14.40;79.90;;;;;;5075418;28;20036;-82
2023/03/25 02:33:27;;;;;;;11.43;10.05;;;14.40;80.40;;;;;;5075429;28;20040;-82
2023/03/25 02:36:17;;;;;;;16.10;9.40;;;14.30;80.20;;;;;;5057225;28;20052;-80
2023/03/25 02:38:52;;;;;;;14.15;9.93;;;14.30;80.70;;;;;;5075155;28;20028;-81
2023/03/25 02:41:38;;;;;;;13.38;9.70;;;14.30;81.00;;;;;;5078954;28;20044;-82
2023/03/25 02:44:19;;;;;;;14.40;9.55;;;14.30;81.30;;;;;;5076723;28;20024;-82
2023/03/25 02:46:50;;;;;;;12.00;10.18;;;14.30;81.10;;;;;;5074894;28;20033;-81
2023/03/25 02:49:36;;;;;;;14.50;10.07;;;14.20;81.50;;;;;;5074627;28;20112;-81
2023/03/25 02:52:10;;;;;;;13.80;10.10;;;14.20;82.40;;;;;;5075061;28;20032;-82
2023/03/25 02:54:38;;;;;;;13.32;10.13;;;14.20;82.00;;;;;;5074946;28;20024;-82
2023/03/25 02:57:06;;;;;;;12.55;9.43;;;14.20;82.30;;;;;;5073590;28;20033;-82
2023/03/25 02:59:37;;;;;;;13.27;9.82;;;14.20;82.50;;;;;;5075284;28;20036;-82
2023/03/25 03:02:06;;;;;;;13.15;9.93;;;14.20;82.50;;;;;;5075037;28;20090;-82
2023/03/25 03:04:50;;;;;;;11.02;9.10;;;14.20;82.80;;;;;;5074748;28;20373;-81
2023/03/25 03:07:40;;;;;;;14.25;10.50;;;14.20;83.80;;;;;;5074371;28;20040;-81
2023/03/25 03:10:18;;;;;;;13.45;9.77;;;14.20;83.10;;;;;;5074471;28;20032;-82
2023/03/25 03:13:16;;;;;;;12.35;9.77;;;14.20;83.50;;;;;;5074437;28;20433;-82
2023/03/25 03:15:57;;;;;;;13.77;10.05;;;14.20;84.30;;;;;;5074398;28;20029;-82
2023/03/25 03:18:51;;;;;;;12.95;10.00;;;14.20;84.50;;;;;;5075652;28;20036;-83
2023/03/25 03:21:28;;;;;;;13.88;10.05;;;14.20;84.50;;;;;;5036966;28;20042;-80
2023/03/25 03:24:03;;;;;;;12.75;10.05;;;14.20;83.90;;;;;;5075051;28;20396;-80
2023/03/25 03:26:38;;;;;;;11.65;9.80;;;14.10;84.70;;;;;;5074763;28;20037;-81
2023/03/25 03:29:18;;;;;;;13.18;9.90;;;14.10;84.70;;;;;;5074638;28;20127;-81
2023/03/25 03:31:52;;;;;;;13.20;9.80;;;14.10;84.40;;;;;;5079350;28;20103;-82
2023/03/25 03:34:33;;;;;;;11.50;9.77;;;14.10;83.20;;;;;;5082905;28;20032;-80
2023/03/25 03:37:02;;;;;;;13.65;9.40;;;14.10;82.70;;;;;;5086296;28;20052;-80
2023/03/25 03:39:38;;;;;;;13.05;9.50;;;14.00;82.30;;;;;;5081205;28;20028;-80
2023/03/25 03:42:27;;;;;;;11.20;9.77;;;14.00;81.70;;;;;;5076218;28;20472;-83
2023/03/25 03:44:57;;;;;;;12.63;9.63;;;14.00;81.30;;;;;;5075366;28;20492;-81
2023/03/25 03:47:28;;;;;;;18.25;11.60;;;14.00;81.10;;;;;;5074349;28;20044;-81
2023/03/25 03:50:00;;;;;;;17.75;14.07;;;13.90;80.80;;;;;;5074010;28;20025;-82
2023/03/25 03:52:36;;;;;;;20.92;14.80;;;13.80;80.90;;;;;;5055869;28;20036;-80
2023/03/25 03:55:28;;;;;;;18.88;15.45;;;13.80;81.10;;;;;;5073757;28;20032;-81
2023/03/25 03:58:00;;;;;;;20.10;15.50;;;13.60;81.00;;;;;;5073645;28;20044;-81
2023/03/25 04:00:48;;;;;;;19.13;15.45;;;13.60;81.00;;;;;;5055923;28;20384;-80
2023/03/25 04:03:23;;;;;;;20.42;17.27;;;13.60;81.80;;;;;;5073882;28;20441;-81
2023/03/25 04:05:58;;;;;;;19.73;16.20;;;13.50;81.80;;;;;;5073417;28;20370;-76
2023/03/25 04:08:37;;;;;;;21.17;15.75;;;13.50;81.20;;;;;;5073325;28;20170;-82
2023/03/25 04:11:09;;;;;;;20.40;16.13;;;13.50;81.20;;;;;;5073303;28;20039;-81
2023/03/25 04:13:40;;;;;;;22.35;16.60;;;13.50;81.20;;;;;;5073438;28;20068;-81
2023/03/25 04:16:06;;;;;;;19.33;15.52;;;13.50;81.10;;;;;;5073786;28;20483;-81
2023/03/25 04:18:32;;;;;;;21.15;16.42;;;13.50;81.40;;;;;;5076635;28;20119;-81
2023/03/25 04:20:59;;;;;;;22.33;17.20;;;13.50;81.30;;;;;;5073711;28;20031;-80
2023/03/25 04:23:28;;;;;;;21.42;16.00;;;13.50;81.20;;;;;;5073495;28;20545;-82
2023/03/25 04:25:55;;;;;;;21.05;16.38;;;13.50;81.30;;;;;;5056917;28;20436;-81
2023/03/25 04:28:22;;;;;;;19.60;16.83;;;13.50;81.50;;;;;;5089383;28;20048;-81
2023/03/25 04:30:54;;;;;;;20.80;16.05;;;13.50;81.50;;;;;;5093176;28;20023;-80
2023/03/25 04:33:21;;;;;;;24.23;16.42;;;13.60;81.40;;;;;;5085710;28;20032;-81
2023/03/25 04:35:49;;;;;;;19.05;15.63;;;13.50;81.10;;;;;;5065517;28;20053;-81
2023/03/25 04:38:17;;;;;;;23.92;16.67;;;13.60;81.30;;;;;;5073883;28;20033;-82
2023/03/25 04:40:46;;;;;;;20.73;16.88;;;13.60;81.30;;;;;;5073115;28;20112;-83
2023/03/25 04:43:13;;;;;;;23.20;16.38;;;13.60;82.00;;;;;;5054947;28;20040;-80
2023/03/25 04:45:41;;;;;;;21.02;16.88;;;13.60;81.30;;;;;;5073554;28;20025;-82
2023/03/25 04:48:18;;;;;;;21.98;17.55;;;13.60;81.50;;;;;;5073018;28;20063;-81
2023/03/25 04:50:45;;;;;;;22.08;17.48;;;13.50;81.20;;;;;;5072828;28;20033;-82
2023/03/25 04:53:10;;;;;;;24.20;17.25;;;13.50;81.50;;;;;;5073080;28;20028;-82
2023/03/25 04:55:36;;;;;;;22.73;18.10;;;13.50;81.80;;;;;;5072912;28;20039;-82
2023/03/25 04:58:02;;;;;;;21.20;17.90;;;13.40;82.00;;;;;;5073206;28;20104;-82
2023/03/25 05:00:28;;;;;;;20.45;16.83;;;13.40;81.70;;;;;;5072892;28;20362;-81
2023/03/25 05:02:55;;;;;;;23.02;17.20;;;13.30;81.70;;;;;;5072804;28;20039;-81
2023/03/25 05:05:23;;;;;;;19.42;16.45;;;13.20;81.60;;;;;;5075605;28;20029;-82
2023/03/25 05:07:50;;;;;;;22.83;16.33;;;13.20;81.30;;;;;;5076775;28;20102;-83
2023/03/25 05:10:19;;;;;;;20.02;16.58;;;13.20;81.30;;;;;;5073352;28;20041;-81
2023/03/25 05:12:44;;;;;;;22.80;15.93;;;13.10;80.70;;;;;;5072634;28;20477;-82
2023/03/25 05:15:11;;;;;;;23.70;15.20;;;13.10;80.70;;;;;;5072822;28;20151;-81
2023/03/25 05:17:37;;;;;;;23.67;16.30;;;13.00;80.30;;;;;;5073325;28;20384;-81
2023/03/25 05:20:07;;;;;;;22.48;16.38;;;13.00;80.50;;;;;;5075584;28;20036;-81
2023/03/25 05:22:34;;;;;;;18.98;14.73;;;12.90;80.10;;;;;;5077897;28;20033;-84
2023/03/25 05:25:01;;;;;;;20.95;15.57;;;12.90;80.10;;;;;;5078806;28;20043;-82
2023/03/25 05:27:29;;;;;;;21.95;15.43;;;12.90;79.80;;;;;;5081262;28;20037;-82
2023/03/25 05:29:57;;;;;;;18.95;15.95;;;12.90;79.50;;;;;;5080129;28;20484;-81
2023/03/25 05:32:24;;;;;;;18.55;15.18;;;12.90;79.70;;;;;;5077351;28;20043;-81
2023/03/25 05:34:52;;;;;;;24.25;15.93;;;12.80;79.30;;;;;;5077156;28;20115;-82
2023/03/25 05:37:18;;;;;;;17.08;14.40;;;12.80;79.40;;;;;;5076627;28;20553;-82
2023/03/25 05:39:44;;;;;;;18.40;15.43;;;12.90;79.30;;;;;;5076728;28;20496;-81
2023/03/25 05:42:11;;;;;;;21.70;15.95;;;12.90;79.20;;;;;;5058776;28;20060;-82
2023/03/25 05:44:37;;;;;;;19.50;14.75;;;12.90;78.90;;;;;;5076787;28;20040;-82
2023/03/25 05:47:03;;;;;;;20.02;15.43;;;13.00;78.80;;;;;;5058737;28;20120;-79
2023/03/25 05:49:29;;;;;;;20.52;15.23;;;13.00;78.80;;;;;;5076758;28;20033;-81
2023/03/25 05:51:55;;;;;;;19.73;15.13;;;13.10;78.80;;;;;;5077455;28;20032;-81
2023/03/25 05:54:23;;;;;;;21.02;16.40;;;13.10;78.40;;;;;;5081458;28;20028;-82
2023/03/25 05:56:49;;;;;;;25.10;17.33;;;13.20;78.30;;;;;;5079238;28;20030;-81
2023/03/25 05:59:16;;;;;;;21.55;16.17;;;13.10;78.30;;;;;;5058860;28;20055;-81
2023/03/25 06:01:44;;;;;;;24.00;17.88;;;13.10;78.30;;;;;;5076744;28;20104;-82
2023/03/25 06:04:12;;;;;;;20.38;16.58;;;13.10;78.40;;;;;;5076489;28;20036;-81
2023/03/25 06:06:39;;;;;;;23.50;18.10;;;13.20;78.20;;;;;;5076674;28;20020;-82
2023/03/25 06:09:05;;;;;;;24.80;16.95;;;13.20;78.00;;;;;;5076854;28;20044;-82
2023/03/25 06:11:36;;;;;;;19.60;16.48;;;13.30;78.00;;;;;;5076550;28;20032;-82
2023/03/25 06:14:04;;;;;;;28.70;18.27;;;13.50;78.10;;;;;;5058434;28;20033;-82
2023/03/25 06:16:30;;;;;;;21.50;17.00;;;13.70;77.60;;;;;;5076718;28;20037;-81
2023/03/25 06:18:58;;;;;;;23.27;17.33;;;13.80;77.40;;;;;;5076306;28;20033;-81
2023/03/25 06:21:28;;;;;;;21.67;17.95;;;14.00;77.10;;;;;;5076231;28;20496;-82
2023/03/25 06:23:54;;;;;;;22.55;17.67;;;14.20;77.40;;;;;;5076523;28;20088;-83
2023/03/25 06:26:21;;;;;;;20.63;17.27;;;14.40;76.80;;;;;;5076504;28;20067;-83
2023/03/25 06:28:48;;;;;;;21.55;15.57;;;14.50;76.20;;;;;;5079760;28;20052;-83
2023/03/25 06:31:16;;;;;;;22.70;16.23;;;14.70;76.70;;;;;;5079566;28;20071;-83
2023/03/25 06:33:46;;;;;;;29.15;17.67;;;14.90;75.90;;;;;;5095282;28;20033;-84
2023/03/25 06:36:17;;;;;;;26.92;17.05;;;15.10;75.40;;;;;;5098642;28;20052;-83
2023/03/25 06:38:44;;;;;;;20.20;16.42;;;15.20;74.40;;;;;;5099206;28;20020;-81
2023/03/25 06:41:10;;;;;;;23.50;17.13;;;15.30;74.60;;;;;;5098698;28;20032;-81
2023/03/25 06:43:36;;;;;;;22.88;15.50;;;15.40;73.90;;;;;;5097417;28;20051;-84
2023/03/25 06:46:02;;;;;;;24.15;16.50;;;15.50;74.00;;;;;;5088719;28;20033;-83
2023/03/25 06:48:28;;;;;;;20.48;16.17;;;15.60;73.50;;;;;;5080915;28;20400;-84
2023/03/25 06:50:54;;;;;;;18.63;15.00;;;15.60;73.10;;;;;;5076335;28;20385;-84
2023/03/25 06:53:20;;;;;;;18.42;14.73;;;15.80;73.40;;;;;;5075683;28;20033;-83
2023/03/25 06:55:46;;;;;;;18.33;14.13;;;16.00;72.80;;;;;;5075330;28;20033;-84
2023/03/25 06:58:11;;;;;;;16.15;13.73;;;16.20;72.30;;;;;;5075295;28;20033;-83
2023/03/25 07:00:38;;;;;;;16.77;13.15;;;16.40;72.20;;;;;;5075627;28;20044;-84
2023/03/25 07:03:03;;;;;;;19.38;14.02;;;16.70;71.70;;;;;;5075829;28;20040;-83
2023/03/25 07:05:29;;;;;;;17.55;13.02;;;16.80;70.80;;;;;;5075737;28;20039;-84
2023/03/25 07:07:55;;;;;;;18.98;12.38;;;17.00;70.50;;;;;;5075525;28;20036;-84
2023/03/25 07:10:20;;;;;;;16.10;12.30;;;17.20;70.20;;;;;;5057980;28;20506;-84
2023/03/25 07:12:46;;;;;;;17.40;13.15;;;17.30;69.90;;;;;;5075755;28;20033;-83
2023/03/25 07:15:12;;;;;;;16.15;11.52;;;17.50;69.30;;;;;;5076216;28;20072;-85
2023/03/25 07:17:38;;;;;;;17.67;12.30;;;17.50;69.50;;;;;;5071936;28;20051;-85
2023/03/25 07:20:05;;;;;;;16.58;11.57;;;17.50;69.50;;;;;;5083524;28;20035;-84
2023/03/25 07:22:31;;;;;;;15.85;11.55;;;17.50;70.10;;;;;;5060809;28;20075;-84
2023/03/25 07:24:57;;;;;;;16.17;11.18;;;17.50;69.90;;;;;;5081071;28;20033;-83
2023/03/25 07:27:24;;;;;;;15.82;11.43;;;17.50;70.20;;;;;;5064157;28;20544;-85
2023/03/25 07:29:50;;;;;;;15.20;11.43;;;17.70;70.30;;;;;;5080520;28;20036;-84
2023/03/25 07:32:15;;;;;;;15.65;11.20;;;17.80;70.40;;;;;;5063086;28;20330;-85
2023/03/25 07:34:41;;;;;;;16.25;9.77;;;18.00;70.60;;;;;;5076969;28;20029;-85
2023/03/25 07:37:07;;;;;;;13.88;10.55;;;18.10;70.90;;;;;;5059142;28;20455;-85
2023/03/25 07:39:33;;;;;;;14.50;9.52;;;18.10;71.30;;;;;;5069487;28;20567;-85
2023/03/25 07:41:59;;;;;;;10.10;6.93;;;18.20;71.40;;;;;;5036593;28;20033;-83
2023/03/25 07:44:25;;;;;;;14.25;7.13;;;18.40;71.90;;;;;;5055541;28;20092;-84
2023/03/25 07:46:50;;;;;;;11.02;5.82;;;18.50;72.00;;;;;;5054935;28;20453;-84
2023/03/25 07:49:16;;;;;;;9.50;5.40;;;18.60;71.90;;;;;;5037432;28;20119;-83
2023/03/25 07:51:43;;;;;;;8.45;5.35;;;18.60;71.90;;;;;;5055069;28;20044;-84
2023/03/25 07:54:09;;;;;;;7.57;4.97;;;18.70;72.10;;;;;;5055685;28;20045;-84
2023/03/25 07:56:35;;;;;;;6.53;4.10;;;18.80;71.90;;;;;;5054827;28;20100;-85
2023/03/25 07:59:01;;;;;;;6.15;3.90;;;18.90;72.30;;;;;;5054815;28;20064;-84
2023/03/25 08:01:27;;;;;;;6.40;3.95;;;18.90;71.20;;;;;;5054613;28;20057;-85
2023/03/25 08:03:53;;;;;;;7.18;3.63;;;19.00;71.00;;;;;;5054193;28;20429;-83
2023/03/25 08:06:18;;;;;;;6.75;4.45;;;19.00;71.40;;;;;;5054228;28;20033;-84
2023/03/25 08:08:45;;;;;;;8.15;4.88;;;19.00;71.30;;;;;;5054298;28;20060;-86
2023/03/25 08:11:10;;;;;;;10.63;5.00;;;19.00;71.30;;;;;;5054460;28;20063;-85
2023/03/25 08:13:36;;;;;;;7.82;5.00;;;19.10;71.10;;;;;;5056368;28;20037;-83
2023/03/25 08:16:02;;;;;;;8.20;4.13;;;19.10;70.90;;;;;;5059195;28;20029;-83
2023/03/25 08:18:28;;;;;;;9.52;5.32;;;19.20;71.20;;;;;;5054251;28;20037;-84
2023/03/25 08:20:54;;;;;;;14.80;4.82;;;19.20;70.90;;;;;;5055373;28;20036;-83
2023/03/25 08:23:21;;;;;;;17.50;5.25;;;19.10;70.90;;;;;;5058892;28;20039;-82
2023/03/25 08:25:48;;;;;;;9.00;4.85;;;19.20;70.90;;;;;;5060715;28;20021;-76
2023/03/25 08:28:16;;;;;;;13.00;4.70;;;19.30;70.80;;;;;;5052888;28;20076;-73
2023/03/25 08:30:43;;;;;;;8.25;4.18;;;19.30;70.50;;;;;;5053208;28;20055;-72
2023/03/25 08:33:09;;;;;;;10.00;4.30;;;19.30;69.80;;;;;;5053217;28;20417;-72
2023/03/25 08:35:36;;;;;;;9.98;5.68;;;19.20;70.20;;;;;;5035165;28;20563;-72
2023/03/25 08:38:05;;;;;;;8.90;5.03;;;19.30;70.50;;;;;;5052838;28;20044;-72
2023/03/25 08:40:32;;;;;;;8.93;4.38;;;19.30;70.40;;;;;;5052953;28;20025;-71
2023/03/25 08:42:58;;;;;;;9.98;3.95;;;19.30;70.10;;;;;;5052705;28;20033;-70
2023/03/25 08:45:24;;;;;;;9.95;4.22;;;19.20;70.10;;;;;;5052893;28;20047;-72
2023/03/25 08:47:49;;;;;;;11.00;4.70;;;19.20;70.20;;;;;;5052785;28;20045;-72
2023/03/25 08:50:15;;;;;;;9.30;4.00;;;19.20;70.20;;;;;;5052579;28;20425;-70
2023/03/25 08:52:41;;;;;;;6.13;3.60;;;19.10;70.30;;;;;;5056592;28;20725;-71
2023/03/25 08:55:09;;;;;;;9.88;4.20;;;19.00;70.40;;;;;;5065375;28;20036;-72
2023/03/25 08:57:35;;;;;;;7.50;3.55;;;18.90;70.60;;;;;;5062631;28;20032;-71
2023/03/25 09:00:01;;;;;;;8.85;4.03;;;18.90;70.50;;;;;;5062942;28;20108;-70
2023/03/25 09:02:27;;;;;;;9.05;4.63;;;19.00;70.90;;;;;;5071703;28;20082;-70
2023/03/25 09:04:53;;;;;;;9.63;3.78;;;19.10;70.30;;;;;;5053039;28;20033;-71
2023/03/25 09:07:19;;;;;;;10.65;4.10;;;19.20;70.00;;;;;;5052310;28;20053;-71
2023/03/25 09:09:45;;;;;;;10.43;4.72;;;19.30;70.10;;;;;;5059367;28;20025;-72
2023/03/25 09:12:11;;;;;;;10.18;4.95;;;19.30;69.50;;;;;;5063765;28;20069;-72
2023/03/25 09:14:37;;;;;;;12.05;4.05;;;19.40;69.60;;;;;;5053826;28;20055;-73
2023/03/25 09:17:05;;;;;;;15.15;4.43;;;19.50;69.00;;;;;;5072525;28;20064;-70
2023/03/25 09:19:32;;;;;;;7.32;3.92;;;19.60;68.80;;;;;;5072340;28;20510;-70
2023/03/25 09:21:58;;;;;;;8.25;4.03;;;19.80;68.70;;;;;;5072458;28;20400;-77
2023/03/25 09:24:24;;;;;;;9.25;5.03;;;19.80;68.50;;;;;;5071948;28;20157;-76
2023/03/25 09:26:50;;;;;;;8.10;4.18;;;19.80;68.40;;;;;;5072430;28;20055;-75
2023/03/25 09:29:16;;;;;;;6.95;3.90;;;19.80;68.40;;;;;;5072216;28;20041;-76
2023/03/25 09:31:41;;;;;;;11.25;5.00;;;19.80;68.40;;;;;;5072578;28;20051;-77
2023/03/25 09:34:08;;;;;;;8.88;3.80;;;19.80;68.00;;;;;;5054044;28;20032;-73
2023/03/25 09:36:33;;;;;;;12.18;4.53;;;19.90;68.20;;;;;;5071988;28;20064;-75
2023/03/25 09:38:59;;;;;;;8.60;4.68;;;19.90;68.00;;;;;;5071996;28;20044;-76
2023/03/25 09:41:31;;;;;;;12.55;4.70;;;19.90;68.60;;;;;;5071671;28;20063;-76
2023/03/25 09:44:04;;;;;;;14.15;4.63;;;19.90;68.30;;;;;;5073138;28;20025;-75
2023/03/25 09:46:30;;;;;;;11.77;4.80;;;19.90;68.50;;;;;;5073062;28;20028;-75
2023/03/25 09:48:56;;;;;;;8.98;4.68;;;19.90;68.60;;;;;;5079059;28;20293;-74
2023/03/25 09:51:35;;;;;;;10.68;4.90;;;20.00;68.40;;;;;;5086070;28;20091;-74
2023/03/25 09:54:20;;;;;;;9.23;4.47;;;20.10;68.50;;;;;;5086901;28;20096;-77
2023/03/25 09:56:47;;;;;;;12.85;4.70;;;20.10;68.00;;;;;;5079295;28;20079;-75
2023/03/25 09:59:22;;;;;;;10.63;4.47;;;20.20;68.20;;;;;;5072712;28;20056;-77
2023/03/25 10:02:21;;;;;;;9.70;4.20;;;20.20;67.90;;;;;;5072173;28;20120;-77
2023/03/25 10:05:14;;;;;;;9.45;4.60;;;20.20;67.90;;;;;;5072156;28;20110;-77
2023/03/25 10:08:12;;;;;;;10.15;4.45;;;20.20;67.70;;;;;;5075349;28;20052;-76
2023/03/25 10:11:06;;;;;;;9.13;4.15;;;20.20;67.40;;;;;;5075739;28;20525;-78
2023/03/25 10:13:54;;;;;;;8.68;4.07;;;20.20;67.00;;;;;;5070818;28;20055;-76
2023/03/25 10:16:46;;;;;;;6.60;3.90;;;20.30;66.50;;;;;;5075263;28;20035;-77
2023/03/25 10:19:41;;;;;;;12.60;5.03;;;20.40;66.10;;;;;;5059646;28;20037;-77
2023/03/25 10:22:24;;;;;;;18.35;5.50;;;20.50;66.10;;;;;;5047729;28;20028;-77
2023/03/25 10:25:03;;;;;;;21.10;6.03;;;20.60;66.20;;;;;;5075060;28;20043;-78
2023/03/25 10:27:33;;;;;;;7.72;4.32;;;20.70;66.10;;;;;;5075069;28;20072;-77
2023/03/25 10:30:14;;;;;;;19.48;8.88;;;20.80;65.30;;;;;;5075556;28;20031;-77
2023/03/25 10:32:49;;;;;;;11.13;3.72;;;20.90;65.30;;;;;;5075492;28;20094;-77
2023/03/25 10:35:26;;;;;;;9.57;4.88;;;20.80;64.90;;;;;;5075418;28;20043;-77
2023/03/25 10:37:54;;;;;;;9.98;3.90;;;20.80;64.70;;;;;;5074442;28;20139;-76
2023/03/25 10:40:30;;;;;;;7.93;3.80;;;20.80;65.10;;;;;;5074276;28;20199;-77
2023/03/25 10:43:17;;;;;;;6.38;3.22;;;20.80;63.80;;;;;;5056268;28;20029;-75
2023/03/25 10:45:45;;;;;;;9.70;4.75;;;20.80;64.00;;;;;;5074141;28;20032;-78
2023/03/25 10:48:20;;;;;;;8.27;3.90;;;20.90;63.80;;;;;;5074169;28;20068;-77
2023/03/25 10:50:46;;;;;;;7.72;4.25;;;20.90;63.70;;;;;;5074426;28;20031;-77
2023/03/25 10:53:24;;;;;;;12.00;5.78;;;20.90;63.10;;;;;;5074007;28;20144;-77
2023/03/25 10:56:17;;;;;;;9.90;5.20;;;21.00;63.50;;;;;;5074473;28;20484;-78
2023/03/25 10:58:48;;;;;;;12.18;4.72;;;21.00;63.70;;;;;;5071592;28;20513;-77
2023/03/25 11:01:17;;;;;;;7.95;4.07;;;21.10;63.90;;;;;;5074102;28;20399;-78
2023/03/25 11:03:45;;;;;;;13.50;5.78;;;21.30;64.60;;;;;;5055889;28;20035;-77
2023/03/25 11:06:22;;;;;;;7.82;4.30;;;21.40;63.30;;;;;;5073892;28;20528;-76
2023/03/25 11:09:06;;;;;;;9.52;4.57;;;21.50;63.50;;;;;;5073730;28;20120;-77
2023/03/25 11:11:34;;;;;;;7.43;3.80;;;21.50;63.10;;;;;;5073858;28;20112;-76
2023/03/25 11:14:02;;;;;;;13.82;5.72;;;21.40;63.10;;;;;;5073737;28;20044;-77
2023/03/25 11:16:41;;;;;;;9.60;4.40;;;21.40;63.20;;;;;;5073284;28;20141;-77
2023/03/25 11:19:19;;;;;;;10.35;4.60;;;21.40;63.30;;;;;;5074299;28;20483;-77
2023/03/25 11:21:47;;;;;;;10.43;3.90;;;21.30;63.10;;;;;;5077214;28;20037;-78
2023/03/25 11:24:17;;;;;;;8.98;4.10;;;21.20;63.30;;;;;;5073306;28;20029;-78
2023/03/25 11:26:47;;;;;;;9.45;4.32;;;21.20;63.50;;;;;;5073445;28;20036;-77
2023/03/25 11:29:16;;;;;;;10.43;4.80;;;21.20;63.60;;;;;;5073623;28;20032;-78
2023/03/25 11:31:42;;;;;;;10.95;4.18;;;21.20;63.60;;;;;;5073563;28;20112;-78
2023/03/25 11:34:11;;;;;;;11.73;4.47;;;21.40;63.10;;;;;;5073325;28;20566;-77
2023/03/25 11:36:43;;;;;;;9.55;4.35;;;21.60;62.90;;;;;;5061728;28;20052;-78
2023/03/25 11:39:28;;;;;;;8.55;3.28;;;21.70;62.40;;;;;;5052637;28;20568;-77
2023/03/25 11:41:54;;;;;;;8.30;3.50;;;21.80;63.60;;;;;;5052911;28;20043;-77
2023/03/25 11:44:27;;;;;;;7.35;4.18;;;22.00;62.30;;;;;;5053117;28;20108;-77
2023/03/25 11:47:06;;;;;;;5.75;3.42;;;22.00;61.30;;;;;;5052846;28;20090;-75
2023/03/25 11:49:37;;;;;;;14.00;5.20;;;22.10;60.90;;;;;;5052760;28;20041;-77
2023/03/25 11:52:12;;;;;;;7.18;3.42;;;22.10;61.90;;;;;;5052443;28;20095;-78
2023/03/25 11:54:39;;;;;;;5.65;3.10;;;22.00;60.20;;;;;;5053131;28;20514;-77
2023/03/25 11:57:13;;;;;;;7.78;3.00;;;22.00;60.90;;;;;;5044751;28;20072;-77
2023/03/25 11:59:44;;;;;;;10.00;3.90;;;22.00;61.20;;;;;;5052876;28;20036;-78
2023/03/25 12:02:24;;;;;;;7.55;3.42;;;22.10;61.80;;;;;;5027809;28;20036;-77
2023/03/25 12:04:56;;;;;;;14.07;4.47;;;22.10;61.70;;;;;;5053216;28;20052;-76
2023/03/25 12:07:23;;;;;;;10.48;4.10;;;22.20;61.40;;;;;;5053108;28;20123;-75
2023/03/25 12:10:04;;;;;;;7.43;3.33;;;22.20;61.40;;;;;;5034831;28;20029;-77
2023/03/25 12:12:49;;;;;;;11.10;4.25;;;22.20;61.40;;;;;;5052435;28;20104;-78
2023/03/25 12:15:38;;;;;;;6.07;3.00;;;22.20;60.00;;;;;;5052433;28;20358;-77
2023/03/25 12:18:09;;;;;;;7.63;3.85;;;22.20;59.10;;;;;;5052685;28;20468;-78
2023/03/25 12:20:38;;;;;;;6.38;3.15;;;22.20;60.30;;;;;;5052554;28;20471;-77
2023/03/25 12:23:18;;;;;;;7.70;3.30;;;22.20;59.70;;;;;;5052521;28;20072;-77
2023/03/25 12:26:03;;;;;;;8.65;3.45;;;22.20;60.20;;;;;;5052391;28;20136;-77
2023/03/25 12:28:50;;;;;;;9.50;3.67;;;22.30;60.10;;;;;;5051908;28;20127;-77
2023/03/25 12:31:29;;;;;;;9.73;3.95;;;22.10;59.80;;;;;;5052137;28;20041;-77
2023/03/25 12:34:22;;;;;;;9.10;3.15;;;22.10;60.20;;;;;;5052555;28;20433;-79
2023/03/25 12:36:56;;;;;;;10.47;3.83;;;22.10;60.00;;;;;;5065045;28;20052;-76
2023/03/25 12:39:32;;;;;;;;;;;22.20;61.40;;;;;;5054423;28;20457;-76
2023/03/25 12:42:32;;;;;;;7.30;4.22;;;22.30;60.00;;;;;;5072327;28;19911;-77
2023/03/25 12:45:28;;;;;;;12.63;3.78;;;22.30;59.90;;;;;;5054262;28;20511;-78
2023/03/25 12:48:31;;;;;;;8.65;3.65;;;22.30;59.40;;;;;;5072126;28;20551;-77
2023/03/25 12:51:24;;;;;;;9.73;3.10;;;22.40;59.30;;;;;;5072862;28;20033;-76
2023/03/25 12:54:07;;;;;;;7.82;3.97;;;22.40;59.10;;;;;;5073807;28;20040;-78
2023/03/25 12:56:48;;;;;;;10.53;4.27;;;22.40;59.10;;;;;;5087291;28;20088;-77